Airfield :
LOGIN :

Register | Disclaimer

   EN    FR    IT 

 










Legend :    VFR   Marginal VFR   IFR   Intensive IFR   Very Intensive IFR
Visi :
Ceiling :
>= 8 km
>= 3000ft
5 to 8 km
1000 to 3000 ft
1500m to 5 km
500 to 1000 ft
800 to 1500m
200 to 500 ft
< 800m
< 200 ft
Symbols :   Thunderstorms  Fog  Heavy snow  Heavy precipitations  Wind > 20 kt
SIGMETs :     Misc.  Thunderstorms  Icing  Turbulence  Mountain Waves  Volcanic Ashes






- Airport Elevation : 367 ft


EGYE - RAF Barkston Heath

CURRENT METAR :
  • 141220Z AUTO 22012G22KT //// FEW023/// 14/09 Q0999

EXPIRED METARs :
  • 141150Z 23012KT 9999 SCT047 BKN180 16/11 Q0998 RMK BLU
  • 141120Z AUTO 22013KT //// FEW025/// 14/10 Q0999
  • 141050Z 21012KT 9999 BKN023 15/10 Q0999 RMK WHT
  • 141020Z AUTO 22012KT //// FEW020/// BKN043/// 14/11 Q0999
  • 140950Z 21016KT 9999 VCSH SCT025 SCT045 BKN065 16/10 Q0998 RMK BLU
  • 140920Z AUTO 20012KT //// FEW021/// BKN036/// 14/10 Q0999
  • 140850Z 21012KT 9999 FEW021 BKN037 15/10 Q0999 RMK BLU
  • 140750Z 22011KT 9999 SCT016 BKN052 14/10 Q0999 RMK WHT

TAF TAF EGYE
Valid from the 14 at 12:00 until the 14 at 17:00 UTC


141024Z 1412/1417 23016KT 9999 BKN040
TEMPO 1412/1417 6000 SHRA SCT028TCU
PROB30
TEMPO 1413/1417 3000 +SHRA BKN028CB



MET'MAP, your aeronautical weather chart ! - Copyright ORBIFLY December 2007 - Disclaimer

ORBIFLY MET'MAP TEAM :

Programming & Development : Alexandra Zaïnal
Original concept : Baudouin d'Aumeries
Technical & hardware support : Manuel Goepfert
Assistance : Marc-Olivier Méhu




SOURCES & CREDITS :

   NOAA